sensor_id;sensor_type;location;lat;lon;timestamp;P1;durP1;ratioP1;P2;durP2;ratioP2
73642;SDS011;61938;48.652;9.292;2022-08-19T00:00:33;38.67;;;24.80;;
73642;SDS011;61938;48.652;9.292;2022-08-19T00:03:00;42.22;;;27.27;;
73642;SDS011;61938;48.652;9.292;2022-08-19T00:05:26;46.28;;;27.40;;
73642;SDS011;61938;48.652;9.292;2022-08-19T00:07:51;43.13;;;27.95;;
73642;SDS011;61938;48.652;9.292;2022-08-19T00:10:17;40.05;;;26.30;;
73642;SDS011;61938;48.652;9.292;2022-08-19T00:12:44;39.55;;;26.00;;
73642;SDS011;61938;48.652;9.292;2022-08-19T00:15:11;40.83;;;24.20;;
73642;SDS011;61938;48.652;9.292;2022-08-19T00:17:40;40.08;;;25.30;;
73642;SDS011;61938;48.652;9.292;2022-08-19T00:20:10;42.47;;;24.98;;
73642;SDS011;61938;48.652;9.292;2022-08-19T00:22:38;40.45;;;23.55;;
73642;SDS011;61938;48.652;9.292;2022-08-19T00:25:06;36.58;;;23.10;;
73642;SDS011;61938;48.652;9.292;2022-08-19T00:27:32;40.60;;;24.60;;
73642;SDS011;61938;48.652;9.292;2022-08-19T00:29:58;35.25;;;23.63;;
73642;SDS011;61938;48.652;9.292;2022-08-19T00:32:25;36.95;;;22.13;;
73642;SDS011;61938;48.652;9.292;2022-08-19T00:34:51;33.83;;;21.90;;
73642;SDS011;61938;48.652;9.292;2022-08-19T00:37:18;36.13;;;23.17;;
73642;SDS011;61938;48.652;9.292;2022-08-19T00:39:47;35.92;;;22.80;;
73642;SDS011;61938;48.652;9.292;2022-08-19T00:42:13;29.63;;;20.67;;
73642;SDS011;61938;48.652;9.292;2022-08-19T00:44:40;34.72;;;22.30;;
73642;SDS011;61938;48.652;9.292;2022-08-19T00:47:07;36.30;;;23.10;;
73642;SDS011;61938;48.652;9.292;2022-08-19T00:49:34;33.20;;;22.90;;
73642;SDS011;61938;48.652;9.292;2022-08-19T00:52:26;34.20;;;22.38;;
73642;SDS011;61938;48.652;9.292;2022-08-19T00:54:56;40.28;;;23.35;;
73642;SDS011;61938;48.652;9.292;2022-08-19T00:57:31;34.60;;;21.95;;
73642;SDS011;61938;48.652;9.292;2022-08-19T01:00:04;39.40;;;23.05;;
73642;SDS011;61938;48.652;9.292;2022-08-19T01:02:35;49.88;;;23.38;;
73642;SDS011;61938;48.652;9.292;2022-08-19T01:05:05;35.33;;;21.50;;
73642;SDS011;61938;48.652;9.292;2022-08-19T01:07:34;39.63;;;23.75;;
73642;SDS011;61938;48.652;9.292;2022-08-19T01:10:02;35.70;;;21.60;;
73642;SDS011;61938;48.652;9.292;2022-08-19T01:12:30;37.88;;;22.17;;
73642;SDS011;61938;48.652;9.292;2022-08-19T01:14:56;37.08;;;23.35;;
73642;SDS011;61938;48.652;9.292;2022-08-19T01:17:23;39.95;;;22.27;;
73642;SDS011;61938;48.652;9.292;2022-08-19T01:19:49;38.13;;;23.10;;
73642;SDS011;61938;48.652;9.292;2022-08-19T01:24:45;43.33;;;23.20;;
73642;SDS011;61938;48.652;9.292;2022-08-19T01:27:11;42.05;;;23.60;;
73642;SDS011;61938;48.652;9.292;2022-08-19T01:29:39;40.20;;;22.38;;
73642;SDS011;61938;48.652;9.292;2022-08-19T01:32:07;37.75;;;22.23;;
73642;SDS011;61938;48.652;9.292;2022-08-19T01:34:38;40.97;;;21.00;;
73642;SDS011;61938;48.652;9.292;2022-08-19T01:37:08;33.97;;;21.55;;
73642;SDS011;61938;48.652;9.292;2022-08-19T01:39:36;33.83;;;21.25;;
73642;SDS011;61938;48.652;9.292;2022-08-19T01:42:03;34.47;;;21.17;;
73642;SDS011;61938;48.652;9.292;2022-08-19T01:44:32;35.53;;;21.08;;
73642;SDS011;61938;48.652;9.292;2022-08-19T01:46:58;33.50;;;21.65;;
73642;SDS011;61938;48.652;9.292;2022-08-19T01:49:24;34.20;;;21.48;;
73642;SDS011;61938;48.652;9.292;2022-08-19T01:51:53;34.13;;;21.13;;
73642;SDS011;61938;48.652;9.292;2022-08-19T01:54:21;31.08;;;20.77;;
73642;SDS011;61938;48.652;9.292;2022-08-19T01:56:48;35.95;;;21.25;;
73642;SDS011;61938;48.652;9.292;2022-08-19T01:59:17;31.75;;;21.58;;
73642;SDS011;61938;48.652;9.292;2022-08-19T02:01:45;37.50;;;23.13;;
73642;SDS011;61938;48.652;9.292;2022-08-19T02:04:11;32.00;;;21.48;;
73642;SDS011;61938;48.652;9.292;2022-08-19T02:06:37;34.63;;;21.70;;
73642;SDS011;61938;48.652;9.292;2022-08-19T02:09:06;34.15;;;20.98;;
73642;SDS011;61938;48.652;9.292;2022-08-19T02:11:34;33.97;;;22.25;;
73642;SDS011;61938;48.652;9.292;2022-08-19T02:14:02;37.33;;;21.45;;
73642;SDS011;61938;48.652;9.292;2022-08-19T02:16:31;34.72;;;20.92;;
73642;SDS011;61938;48.652;9.292;2022-08-19T02:18:57;35.30;;;21.77;;
73642;SDS011;61938;48.652;9.292;2022-08-19T02:21:26;35.92;;;22.27;;
73642;SDS011;61938;48.652;9.292;2022-08-19T02:23:53;33.80;;;21.23;;
73642;SDS011;61938;48.652;9.292;2022-08-19T02:26:20;32.78;;;21.00;;
73642;SDS011;61938;48.652;9.292;2022-08-19T02:28:47;38.50;;;22.58;;
73642;SDS011;61938;48.652;9.292;2022-08-19T02:31:17;35.00;;;21.60;;
73642;SDS011;61938;48.652;9.292;2022-08-19T02:33:45;39.20;;;21.95;;
73642;SDS011;61938;48.652;9.292;2022-08-19T02:36:12;38.90;;;22.60;;
73642;SDS011;61938;48.652;9.292;2022-08-19T02:38:39;34.75;;;21.08;;
73642;SDS011;61938;48.652;9.292;2022-08-19T02:41:07;33.92;;;21.20;;
73642;SDS011;61938;48.652;9.292;2022-08-19T02:46:22;38.92;;;23.60;;
73642;SDS011;61938;48.652;9.292;2022-08-19T02:48:55;41.30;;;23.70;;
73642;SDS011;61938;48.652;9.292;2022-08-19T02:51:24;37.63;;;23.30;;
73642;SDS011;61938;48.652;9.292;2022-08-19T02:53:51;38.55;;;23.08;;
73642;SDS011;61938;48.652;9.292;2022-08-19T02:56:18;41.63;;;23.08;;
73642;SDS011;61938;48.652;9.292;2022-08-19T02:58:45;38.92;;;22.15;;
73642;SDS011;61938;48.652;9.292;2022-08-19T03:01:11;41.40;;;22.90;;
73642;SDS011;61938;48.652;9.292;2022-08-19T03:03:52;39.43;;;22.03;;
73642;SDS011;61938;48.652;9.292;2022-08-19T03:06:18;42.60;;;24.13;;
73642;SDS011;61938;48.652;9.292;2022-08-19T03:08:45;42.97;;;23.58;;
73642;SDS011;61938;48.652;9.292;2022-08-19T03:11:15;40.65;;;23.70;;
73642;SDS011;61938;48.652;9.292;2022-08-19T03:13:43;43.10;;;24.85;;
73642;SDS011;61938;48.652;9.292;2022-08-19T03:16:10;42.03;;;23.00;;
73642;SDS011;61938;48.652;9.292;2022-08-19T03:18:37;44.38;;;24.70;;
73642;SDS011;61938;48.652;9.292;2022-08-19T03:21:03;44.72;;;23.55;;
73642;SDS011;61938;48.652;9.292;2022-08-19T03:23:30;38.58;;;22.60;;
73642;SDS011;61938;48.652;9.292;2022-08-19T03:25:56;38.63;;;22.75;;
73642;SDS011;61938;48.652;9.292;2022-08-19T03:28:22;36.47;;;22.27;;
73642;SDS011;61938;48.652;9.292;2022-08-19T03:30:58;39.05;;;22.13;;
73642;SDS011;61938;48.652;9.292;2022-08-19T03:33:28;39.05;;;22.15;;
73642;SDS011;61938;48.652;9.292;2022-08-19T03:36:03;36.95;;;21.20;;
73642;SDS011;61938;48.652;9.292;2022-08-19T03:38:38;38.85;;;22.63;;
73642;SDS011;61938;48.652;9.292;2022-08-19T03:41:07;36.75;;;21.90;;
73642;SDS011;61938;48.652;9.292;2022-08-19T03:43:41;38.72;;;22.60;;
73642;SDS011;61938;48.652;9.292;2022-08-19T03:46:09;40.17;;;23.17;;
73642;SDS011;61938;48.652;9.292;2022-08-19T03:48:37;39.65;;;22.80;;
73642;SDS011;61938;48.652;9.292;2022-08-19T03:51:04;37.45;;;22.58;;
73642;SDS011;61938;48.652;9.292;2022-08-19T03:53:31;40.97;;;22.80;;
73642;SDS011;61938;48.652;9.292;2022-08-19T03:55:59;43.03;;;22.55;;
73642;SDS011;61938;48.652;9.292;2022-08-19T03:58:25;39.75;;;23.17;;
73642;SDS011;61938;48.652;9.292;2022-08-19T04:00:53;39.85;;;23.10;;
73642;SDS011;61938;48.652;9.292;2022-08-19T04:03:20;41.65;;;22.73;;
73642;SDS011;61938;48.652;9.292;2022-08-19T04:05:46;42.67;;;23.33;;
73642;SDS011;61938;48.652;9.292;2022-08-19T04:08:12;38.17;;;22.27;;
73642;SDS011;61938;48.652;9.292;2022-08-19T04:10:40;38.97;;;21.58;;
73642;SDS011;61938;48.652;9.292;2022-08-19T04:13:06;44.50;;;24.92;;
73642;SDS011;61938;48.652;9.292;2022-08-19T04:15:38;40.45;;;23.65;;
73642;SDS011;61938;48.652;9.292;2022-08-19T04:18:06;41.60;;;23.45;;
73642;SDS011;61938;48.652;9.292;2022-08-19T04:20:41;44.97;;;23.25;;
73642;SDS011;61938;48.652;9.292;2022-08-19T04:23:08;51.30;;;27.38;;
73642;SDS011;61938;48.652;9.292;2022-08-19T04:25:38;45.05;;;25.73;;
73642;SDS011;61938;48.652;9.292;2022-08-19T04:28:05;47.22;;;26.38;;
73642;SDS011;61938;48.652;9.292;2022-08-19T04:30:36;46.10;;;27.27;;
73642;SDS011;61938;48.652;9.292;2022-08-19T04:33:04;52.15;;;28.15;;
73642;SDS011;61938;48.652;9.292;2022-08-19T04:35:40;60.90;;;28.85;;
73642;SDS011;61938;48.652;9.292;2022-08-19T04:38:08;45.10;;;26.75;;
73642;SDS011;61938;48.652;9.292;2022-08-19T04:40:39;53.38;;;28.08;;
73642;SDS011;61938;48.652;9.292;2022-08-19T04:43:24;51.88;;;28.27;;
73642;SDS011;61938;48.652;9.292;2022-08-19T04:45:50;51.70;;;28.55;;
73642;SDS011;61938;48.652;9.292;2022-08-19T04:48:16;58.40;;;30.10;;
73642;SDS011;61938;48.652;9.292;2022-08-19T04:50:44;50.90;;;28.73;;
73642;SDS011;61938;48.652;9.292;2022-08-19T04:53:10;53.50;;;29.52;;
73642;SDS011;61938;48.652;9.292;2022-08-19T04:55:40;53.75;;;28.92;;
73642;SDS011;61938;48.652;9.292;2022-08-19T04:58:07;54.40;;;29.33;;
73642;SDS011;61938;48.652;9.292;2022-08-19T05:00:32;61.70;;;32.20;;
73642;SDS011;61938;48.652;9.292;2022-08-19T05:02:58;56.63;;;30.50;;
73642;SDS011;61938;48.652;9.292;2022-08-19T05:05:24;59.17;;;29.95;;
73642;SDS011;61938;48.652;9.292;2022-08-19T05:07:50;50.38;;;29.40;;
73642;SDS011;61938;48.652;9.292;2022-08-19T05:10:15;58.28;;;30.75;;
73642;SDS011;61938;48.652;9.292;2022-08-19T05:12:41;54.45;;;29.80;;
73642;SDS011;61938;48.652;9.292;2022-08-19T05:15:07;53.92;;;28.98;;
73642;SDS011;61938;48.652;9.292;2022-08-19T05:17:34;58.33;;;31.05;;
73642;SDS011;61938;48.652;9.292;2022-08-19T05:19:59;56.65;;;29.25;;
73642;SDS011;61938;48.652;9.292;2022-08-19T05:22:45;52.40;;;28.80;;
73642;SDS011;61938;48.652;9.292;2022-08-19T05:25:13;52.42;;;30.23;;
73642;SDS011;61938;48.652;9.292;2022-08-19T05:27:44;57.50;;;29.75;;
73642;SDS011;61938;48.652;9.292;2022-08-19T05:30:10;52.65;;;28.85;;
73642;SDS011;61938;48.652;9.292;2022-08-19T05:32:36;55.47;;;30.50;;
73642;SDS011;61938;48.652;9.292;2022-08-19T05:35:03;53.47;;;28.48;;
73642;SDS011;61938;48.652;9.292;2022-08-19T05:37:30;55.10;;;30.20;;
73642;SDS011;61938;48.652;9.292;2022-08-19T05:39:56;54.88;;;30.70;;
73642;SDS011;61938;48.652;9.292;2022-08-19T05:42:22;53.60;;;29.60;;
73642;SDS011;61938;48.652;9.292;2022-08-19T05:44:49;48.78;;;28.50;;
73642;SDS011;61938;48.652;9.292;2022-08-19T05:47:15;52.90;;;30.10;;
73642;SDS011;61938;48.652;9.292;2022-08-19T05:49:44;52.40;;;30.25;;
73642;SDS011;61938;48.652;9.292;2022-08-19T05:52:11;58.83;;;30.15;;
73642;SDS011;61938;48.652;9.292;2022-08-19T05:54:40;57.75;;;29.83;;
73642;SDS011;61938;48.652;9.292;2022-08-19T05:57:08;50.60;;;29.17;;
73642;SDS011;61938;48.652;9.292;2022-08-19T05:59:34;56.33;;;29.77;;
73642;SDS011;61938;48.652;9.292;2022-08-19T06:02:03;59.42;;;30.23;;
73642;SDS011;61938;48.652;9.292;2022-08-19T06:04:31;51.88;;;29.65;;
73642;SDS011;61938;48.652;9.292;2022-08-19T06:06:57;55.53;;;28.75;;
73642;SDS011;61938;48.652;9.292;2022-08-19T06:09:23;52.42;;;29.73;;
73642;SDS011;61938;48.652;9.292;2022-08-19T06:11:53;53.92;;;29.88;;
73642;SDS011;61938;48.652;9.292;2022-08-19T06:14:26;56.38;;;30.45;;
73642;SDS011;61938;48.652;9.292;2022-08-19T06:16:54;56.38;;;30.75;;
73642;SDS011;61938;48.652;9.292;2022-08-19T06:19:21;52.47;;;29.83;;
73642;SDS011;61938;48.652;9.292;2022-08-19T06:21:49;50.80;;;27.85;;
73642;SDS011;61938;48.652;9.292;2022-08-19T06:24:19;50.70;;;28.88;;
73642;SDS011;61938;48.652;9.292;2022-08-19T06:26:49;50.42;;;30.63;;
73642;SDS011;61938;48.652;9.292;2022-08-19T06:29:17;62.65;;;31.88;;
73642;SDS011;61938;48.652;9.292;2022-08-19T06:31:48;53.88;;;29.85;;
73642;SDS011;61938;48.652;9.292;2022-08-19T06:34:15;54.90;;;31.00;;
73642;SDS011;61938;48.652;9.292;2022-08-19T06:36:43;54.22;;;31.35;;
73642;SDS011;61938;48.652;9.292;2022-08-19T06:39:12;50.55;;;29.30;;
73642;SDS011;61938;48.652;9.292;2022-08-19T06:41:50;47.47;;;28.77;;
73642;SDS011;61938;48.652;9.292;2022-08-19T06:44:19;53.22;;;30.17;;
73642;SDS011;61938;48.652;9.292;2022-08-19T06:46:46;55.45;;;30.55;;
73642;SDS011;61938;48.652;9.292;2022-08-19T06:49:14;49.75;;;29.42;;
73642;SDS011;61938;48.652;9.292;2022-08-19T06:51:42;50.08;;;30.60;;
73642;SDS011;61938;48.652;9.292;2022-08-19T06:54:09;54.22;;;29.52;;
73642;SDS011;61938;48.652;9.292;2022-08-19T06:56:35;54.70;;;29.98;;
73642;SDS011;61938;48.652;9.292;2022-08-19T06:59:06;58.10;;;29.73;;
73642;SDS011;61938;48.652;9.292;2022-08-19T07:01:40;58.45;;;29.88;;
73642;SDS011;61938;48.652;9.292;2022-08-19T07:04:12;56.53;;;30.00;;
73642;SDS011;61938;48.652;9.292;2022-08-19T07:06:40;56.78;;;29.40;;
73642;SDS011;61938;48.652;9.292;2022-08-19T07:09:08;56.05;;;29.80;;
73642;SDS011;61938;48.652;9.292;2022-08-19T07:11:35;49.20;;;28.95;;
73642;SDS011;61938;48.652;9.292;2022-08-19T07:14:01;52.08;;;28.02;;
73642;SDS011;61938;48.652;9.292;2022-08-19T07:16:27;49.28;;;29.25;;
73642;SDS011;61938;48.652;9.292;2022-08-19T07:18:54;51.30;;;29.65;;
73642;SDS011;61938;48.652;9.292;2022-08-19T07:21:23;54.47;;;29.92;;
73642;SDS011;61938;48.652;9.292;2022-08-19T07:23:51;51.85;;;31.10;;
73642;SDS011;61938;48.652;9.292;2022-08-19T07:26:23;55.80;;;30.63;;
73642;SDS011;61938;48.652;9.292;2022-08-19T07:28:51;54.08;;;30.25;;
73642;SDS011;61938;48.652;9.292;2022-08-19T07:31:19;59.60;;;32.92;;
73642;SDS011;61938;48.652;9.292;2022-08-19T07:33:48;51.95;;;29.65;;
73642;SDS011;61938;48.652;9.292;2022-08-19T07:36:16;54.35;;;29.73;;
73642;SDS011;61938;48.652;9.292;2022-08-19T07:38:46;57.50;;;30.80;;
73642;SDS011;61938;48.652;9.292;2022-08-19T07:41:16;60.95;;;32.00;;
73642;SDS011;61938;48.652;9.292;2022-08-19T07:46:12;55.42;;;31.30;;
73642;SDS011;61938;48.652;9.292;2022-08-19T07:48:38;58.17;;;30.90;;
73642;SDS011;61938;48.652;9.292;2022-08-19T07:51:07;54.75;;;31.50;;
73642;SDS011;61938;48.652;9.292;2022-08-19T07:53:33;73.50;;;35.90;;
73642;SDS011;61938;48.652;9.292;2022-08-19T07:56:00;61.33;;;36.85;;
73642;SDS011;61938;48.652;9.292;2022-08-19T07:58:27;57.05;;;30.42;;
73642;SDS011;61938;48.652;9.292;2022-08-19T08:00:54;55.17;;;30.45;;
73642;SDS011;61938;48.652;9.292;2022-08-19T08:03:20;62.30;;;32.28;;
73642;SDS011;61938;48.652;9.292;2022-08-19T08:06:07;53.92;;;31.00;;
73642;SDS011;61938;48.652;9.292;2022-08-19T08:08:51;49.97;;;29.85;;
73642;SDS011;61938;48.652;9.292;2022-08-19T08:11:36;59.20;;;30.83;;
73642;SDS011;61938;48.652;9.292;2022-08-19T08:14:18;54.33;;;29.90;;
73642;SDS011;61938;48.652;9.292;2022-08-19T08:16:47;51.30;;;29.30;;
73642;SDS011;61938;48.652;9.292;2022-08-19T08:19:15;51.55;;;30.80;;
73642;SDS011;61938;48.652;9.292;2022-08-19T08:21:41;55.88;;;29.50;;
73642;SDS011;61938;48.652;9.292;2022-08-19T08:24:07;52.25;;;29.00;;
73642;SDS011;61938;48.652;9.292;2022-08-19T08:26:33;55.63;;;30.83;;
73642;SDS011;61938;48.652;9.292;2022-08-19T08:28:59;50.65;;;30.23;;
73642;SDS011;61938;48.652;9.292;2022-08-19T08:31:25;53.08;;;30.05;;
73642;SDS011;61938;48.652;9.292;2022-08-19T08:33:51;52.10;;;28.83;;
73642;SDS011;61938;48.652;9.292;2022-08-19T08:36:17;49.35;;;29.20;;
73642;SDS011;61938;48.652;9.292;2022-08-19T08:38:43;51.42;;;29.75;;
73642;SDS011;61938;48.652;9.292;2022-08-19T08:43:58;55.80;;;31.30;;
73642;SDS011;61938;48.652;9.292;2022-08-19T08:49:01;54.17;;;28.52;;
73642;SDS011;61938;48.652;9.292;2022-08-19T08:51:38;56.30;;;29.00;;
73642;SDS011;61938;48.652;9.292;2022-08-19T08:54:08;52.78;;;29.42;;
73642;SDS011;61938;48.652;9.292;2022-08-19T08:56:40;53.55;;;31.13;;
73642;SDS011;61938;48.652;9.292;2022-08-19T08:59:21;56.90;;;30.50;;
73642;SDS011;61938;48.652;9.292;2022-08-19T09:01:53;50.35;;;28.48;;
73642;SDS011;61938;48.652;9.292;2022-08-19T09:04:19;51.08;;;29.55;;
73642;SDS011;61938;48.652;9.292;2022-08-19T09:09:50;47.45;;;28.60;;
73642;SDS011;61938;48.652;9.292;2022-08-19T09:15:18;49.13;;;28.65;;
73642;SDS011;61938;48.652;9.292;2022-08-19T09:17:59;53.15;;;29.27;;
73642;SDS011;61938;48.652;9.292;2022-08-19T09:20:26;49.95;;;28.15;;
73642;SDS011;61938;48.652;9.292;2022-08-19T09:22:52;48.97;;;28.60;;
73642;SDS011;61938;48.652;9.292;2022-08-19T09:25:19;50.67;;;29.88;;
73642;SDS011;61938;48.652;9.292;2022-08-19T09:27:48;51.28;;;28.55;;
73642;SDS011;61938;48.652;9.292;2022-08-19T09:30:19;48.28;;;27.15;;
73642;SDS011;61938;48.652;9.292;2022-08-19T09:32:49;46.60;;;28.70;;
73642;SDS011;61938;48.652;9.292;2022-08-19T09:35:18;49.60;;;28.60;;
73642;SDS011;61938;48.652;9.292;2022-08-19T09:37:45;49.30;;;27.35;;
73642;SDS011;61938;48.652;9.292;2022-08-19T09:40:11;49.70;;;28.42;;
73642;SDS011;61938;48.652;9.292;2022-08-19T09:42:37;57.17;;;29.52;;
73642;SDS011;61938;48.652;9.292;2022-08-19T09:45:03;51.08;;;29.45;;
73642;SDS011;61938;48.652;9.292;2022-08-19T09:47:30;46.08;;;27.67;;
73642;SDS011;61938;48.652;9.292;2022-08-19T09:49:57;49.67;;;29.65;;
73642;SDS011;61938;48.652;9.292;2022-08-19T09:52:23;46.00;;;27.40;;
73642;SDS011;61938;48.652;9.292;2022-08-19T09:54:51;50.75;;;29.63;;
73642;SDS011;61938;48.652;9.292;2022-08-19T09:57:18;50.92;;;29.95;;
73642;SDS011;61938;48.652;9.292;2022-08-19T09:59:44;45.25;;;26.63;;
73642;SDS011;61938;48.652;9.292;2022-08-19T10:02:10;44.50;;;27.58;;
73642;SDS011;61938;48.652;9.292;2022-08-19T10:04:35;46.83;;;28.17;;
73642;SDS011;61938;48.652;9.292;2022-08-19T10:07:19;52.30;;;28.08;;
73642;SDS011;61938;48.652;9.292;2022-08-19T10:09:46;52.65;;;27.38;;
73642;SDS011;61938;48.652;9.292;2022-08-19T10:12:12;51.70;;;27.42;;
73642;SDS011;61938;48.652;9.292;2022-08-19T10:14:40;48.92;;;28.77;;
73642;SDS011;61938;48.652;9.292;2022-08-19T10:17:06;47.83;;;27.35;;
73642;SDS011;61938;48.652;9.292;2022-08-19T10:19:32;47.20;;;28.73;;
73642;SDS011;61938;48.652;9.292;2022-08-19T10:22:04;46.40;;;28.75;;
73642;SDS011;61938;48.652;9.292;2022-08-19T10:24:32;52.58;;;27.85;;
73642;SDS011;61938;48.652;9.292;2022-08-19T10:27:01;47.92;;;27.55;;
73642;SDS011;61938;48.652;9.292;2022-08-19T10:29:29;48.72;;;28.55;;
73642;SDS011;61938;48.652;9.292;2022-08-19T10:31:57;48.13;;;28.75;;
73642;SDS011;61938;48.652;9.292;2022-08-19T10:34:23;46.58;;;28.83;;
73642;SDS011;61938;48.652;9.292;2022-08-19T10:36:50;50.78;;;28.05;;
73642;SDS011;61938;48.652;9.292;2022-08-19T10:39:16;50.63;;;29.35;;
73642;SDS011;61938;48.652;9.292;2022-08-19T10:41:42;59.47;;;31.60;;
73642;SDS011;61938;48.652;9.292;2022-08-19T10:44:09;50.67;;;29.00;;
73642;SDS011;61938;48.652;9.292;2022-08-19T10:46:38;53.92;;;30.33;;
73642;SDS011;61938;48.652;9.292;2022-08-19T10:49:07;53.28;;;30.38;;
73642;SDS011;61938;48.652;9.292;2022-08-19T10:51:36;62.13;;;32.15;;
73642;SDS011;61938;48.652;9.292;2022-08-19T10:54:22;57.15;;;32.83;;
73642;SDS011;61938;48.652;9.292;2022-08-19T10:56:47;59.90;;;32.83;;
73642;SDS011;61938;48.652;9.292;2022-08-19T10:59:17;55.75;;;33.17;;
73642;SDS011;61938;48.652;9.292;2022-08-19T11:01:47;64.05;;;32.97;;
73642;SDS011;61938;48.652;9.292;2022-08-19T11:04:14;63.05;;;33.88;;
73642;SDS011;61938;48.652;9.292;2022-08-19T11:06:49;67.47;;;35.33;;
73642;SDS011;61938;48.652;9.292;2022-08-19T11:09:16;63.03;;;33.78;;
73642;SDS011;61938;48.652;9.292;2022-08-19T11:11:44;67.07;;;34.92;;
73642;SDS011;61938;48.652;9.292;2022-08-19T11:14:12;60.47;;;33.65;;
73642;SDS011;61938;48.652;9.292;2022-08-19T11:16:39;68.80;;;36.55;;
73642;SDS011;61938;48.652;9.292;2022-08-19T11:19:07;66.85;;;34.83;;
73642;SDS011;61938;48.652;9.292;2022-08-19T11:21:36;70.82;;;37.78;;
73642;SDS011;61938;48.652;9.292;2022-08-19T11:24:04;65.97;;;35.97;;
73642;SDS011;61938;48.652;9.292;2022-08-19T11:26:32;75.93;;;36.38;;
73642;SDS011;61938;48.652;9.292;2022-08-19T11:28:59;68.28;;;35.28;;
73642;SDS011;61938;48.652;9.292;2022-08-19T11:31:26;69.22;;;36.92;;
73642;SDS011;61938;48.652;9.292;2022-08-19T11:33:56;69.53;;;34.63;;
73642;SDS011;61938;48.652;9.292;2022-08-19T11:36:24;75.65;;;35.97;;
73642;SDS011;61938;48.652;9.292;2022-08-19T11:38:50;73.15;;;35.88;;
73642;SDS011;61938;48.652;9.292;2022-08-19T11:41:17;64.43;;;34.08;;
73642;SDS011;61938;48.652;9.292;2022-08-19T11:43:45;66.03;;;35.10;;
73642;SDS011;61938;48.652;9.292;2022-08-19T11:46:12;70.72;;;34.58;;
73642;SDS011;61938;48.652;9.292;2022-08-19T11:48:40;67.63;;;37.47;;
73642;SDS011;61938;48.652;9.292;2022-08-19T11:51:08;73.68;;;37.92;;
73642;SDS011;61938;48.652;9.292;2022-08-19T11:53:42;68.53;;;35.80;;
73642;SDS011;61938;48.652;9.292;2022-08-19T11:56:08;68.25;;;36.13;;
73642;SDS011;61938;48.652;9.292;2022-08-19T11:58:34;78.88;;;37.03;;
73642;SDS011;61938;48.652;9.292;2022-08-19T12:01:01;68.75;;;35.63;;
73642;SDS011;61938;48.652;9.292;2022-08-19T12:03:29;74.15;;;36.38;;
73642;SDS011;61938;48.652;9.292;2022-08-19T12:05:55;73.55;;;37.53;;
73642;SDS011;61938;48.652;9.292;2022-08-19T12:08:21;74.95;;;39.03;;
73642;SDS011;61938;48.652;9.292;2022-08-19T12:10:47;72.53;;;36.55;;
73642;SDS011;61938;48.652;9.292;2022-08-19T12:13:13;72.05;;;36.92;;
73642;SDS011;61938;48.652;9.292;2022-08-19T12:15:44;72.10;;;36.67;;
73642;SDS011;61938;48.652;9.292;2022-08-19T12:18:11;79.80;;;37.65;;
73642;SDS011;61938;48.652;9.292;2022-08-19T12:20:39;72.70;;;37.20;;
73642;SDS011;61938;48.652;9.292;2022-08-19T12:23:06;69.95;;;37.35;;
73642;SDS011;61938;48.652;9.292;2022-08-19T12:25:34;77.80;;;38.05;;
73642;SDS011;61938;48.652;9.292;2022-08-19T12:28:01;69.70;;;37.05;;
73642;SDS011;61938;48.652;9.292;2022-08-19T12:30:27;77.78;;;38.20;;
73642;SDS011;61938;48.652;9.292;2022-08-19T12:32:53;75.97;;;39.03;;
73642;SDS011;61938;48.652;9.292;2022-08-19T12:35:19;70.20;;;35.72;;
73642;SDS011;61938;48.652;9.292;2022-08-19T12:37:46;74.55;;;35.83;;
73642;SDS011;61938;48.652;9.292;2022-08-19T12:40:15;80.38;;;40.53;;
73642;SDS011;61938;48.652;9.292;2022-08-19T12:42:43;79.07;;;38.78;;
73642;SDS011;61938;48.652;9.292;2022-08-19T12:45:09;76.97;;;38.47;;
73642;SDS011;61938;48.652;9.292;2022-08-19T12:47:37;82.72;;;39.72;;
73642;SDS011;61938;48.652;9.292;2022-08-19T12:50:03;75.72;;;38.45;;
73642;SDS011;61938;48.652;9.292;2022-08-19T12:52:31;77.88;;;39.45;;
73642;SDS011;61938;48.652;9.292;2022-08-19T12:54:57;82.78;;;38.60;;
73642;SDS011;61938;48.652;9.292;2022-08-19T12:57:24;77.65;;;38.78;;
73642;SDS011;61938;48.652;9.292;2022-08-19T12:59:52;74.90;;;37.58;;
73642;SDS011;61938;48.652;9.292;2022-08-19T13:02:18;73.60;;;38.28;;
73642;SDS011;61938;48.652;9.292;2022-08-19T13:04:45;70.75;;;38.13;;
73642;SDS011;61938;48.652;9.292;2022-08-19T13:07:12;73.55;;;37.28;;
73642;SDS011;61938;48.652;9.292;2022-08-19T13:09:37;72.03;;;39.28;;
73642;SDS011;61938;48.652;9.292;2022-08-19T13:12:06;70.40;;;37.10;;
73642;SDS011;61938;48.652;9.292;2022-08-19T13:17:05;72.68;;;36.50;;
73642;SDS011;61938;48.652;9.292;2022-08-19T13:19:31;70.90;;;36.88;;
73642;SDS011;61938;48.652;9.292;2022-08-19T13:21:57;66.47;;;36.00;;
73642;SDS011;61938;48.652;9.292;2022-08-19T13:24:23;66.32;;;36.65;;
73642;SDS011;61938;48.652;9.292;2022-08-19T13:26:50;69.25;;;37.70;;
73642;SDS011;61938;48.652;9.292;2022-08-19T13:29:15;65.05;;;35.55;;
73642;SDS011;61938;48.652;9.292;2022-08-19T13:32:00;59.67;;;34.20;;
73642;SDS011;61938;48.652;9.292;2022-08-19T13:34:44;59.50;;;33.30;;
73642;SDS011;61938;48.652;9.292;2022-08-19T13:37:11;57.70;;;33.85;;
73642;SDS011;61938;48.652;9.292;2022-08-19T13:39:37;62.17;;;35.42;;
73642;SDS011;61938;48.652;9.292;2022-08-19T13:42:03;60.97;;;33.22;;
73642;SDS011;61938;48.652;9.292;2022-08-19T13:44:30;60.30;;;32.25;;
73642;SDS011;61938;48.652;9.292;2022-08-19T13:47:03;59.25;;;31.42;;
73642;SDS011;61938;48.652;9.292;2022-08-19T13:49:31;60.47;;;34.35;;
73642;SDS011;61938;48.652;9.292;2022-08-19T13:51:58;58.15;;;32.65;;
73642;SDS011;61938;48.652;9.292;2022-08-19T13:54:24;61.25;;;32.88;;
73642;SDS011;61938;48.652;9.292;2022-08-19T13:56:51;54.92;;;30.83;;
73642;SDS011;61938;48.652;9.292;2022-08-19T13:59:18;59.30;;;31.13;;
73642;SDS011;61938;48.652;9.292;2022-08-19T14:01:44;52.85;;;31.02;;
73642;SDS011;61938;48.652;9.292;2022-08-19T14:04:10;51.35;;;30.00;;
73642;SDS011;61938;48.652;9.292;2022-08-19T14:06:35;47.30;;;31.15;;
73642;SDS011;61938;48.652;9.292;2022-08-19T14:09:01;52.10;;;30.05;;
73642;SDS011;61938;48.652;9.292;2022-08-19T14:11:28;50.00;;;28.98;;
73642;SDS011;61938;48.652;9.292;2022-08-19T14:13:54;52.55;;;29.90;;
73642;SDS011;61938;48.652;9.292;2022-08-19T14:16:20;47.22;;;28.77;;
73642;SDS011;61938;48.652;9.292;2022-08-19T14:18:46;49.50;;;30.80;;
73642;SDS011;61938;48.652;9.292;2022-08-19T14:21:16;55.63;;;30.88;;
73642;SDS011;61938;48.652;9.292;2022-08-19T14:23:46;51.15;;;29.23;;
73642;SDS011;61938;48.652;9.292;2022-08-19T14:26:13;50.53;;;30.30;;
73642;SDS011;61938;48.652;9.292;2022-08-19T14:28:41;44.72;;;28.63;;
73642;SDS011;61938;48.652;9.292;2022-08-19T14:31:11;46.72;;;29.38;;
73642;SDS011;61938;48.652;9.292;2022-08-19T14:33:42;53.10;;;29.58;;
73642;SDS011;61938;48.652;9.292;2022-08-19T14:36:08;49.47;;;29.27;;
73642;SDS011;61938;48.652;9.292;2022-08-19T14:38:34;47.55;;;29.60;;
73642;SDS011;61938;48.652;9.292;2022-08-19T14:43:33;54.85;;;30.50;;
73642;SDS011;61938;48.652;9.292;2022-08-19T14:45:59;53.67;;;31.15;;
73642;SDS011;61938;48.652;9.292;2022-08-19T14:48:25;52.33;;;31.80;;
73642;SDS011;61938;48.652;9.292;2022-08-19T14:50:51;50.75;;;30.27;;